AAL2676 KCLT-KRIC
Flight info
| Callsign | AAL2676 |
|---|---|
| Flight time | 0h 45m |
| Altitude | 25000 |
| Route | BARMY5 RDU NEAVL DUCXS5 |
| Aircraft | A321/M-SDE3FGHIRWY/LB1 |
Departure
| Time | 2026-04-23 23:50 |
|---|---|
| Airport | Charlotte Douglas International Airport (KCLT) |
Arrival
| Time | 2026-04-24 00:35 |
|---|---|
| Airport | Richmond International Airport (KRIC) |
| Time | Latitude | Longitude | Altitude | Speed | Heading |
|---|---|---|---|---|---|
| 2026-04-23 23:24 | 35.21950 | -80.94333 | 731 ft | 0 kts | 86° |
| 2026-04-23 23:37 | 35.21949 | -80.94343 | 731 ft | 4 kts | 80° |
| 2026-04-23 23:37 | 35.21941 | -80.94368 | 732 ft | 4 kts | 19° |
| 2026-04-23 23:37 | 35.21918 | -80.94365 | 732 ft | 4 kts | 345° |
| 2026-04-23 23:38 | 35.21895 | -80.94364 | 730 ft | 2 kts | 31° |
| 2026-04-23 23:38 | 35.21877 | -80.94382 | 732 ft | 4 kts | 76° |
| 2026-04-23 23:38 | 35.21882 | -80.94401 | 730 ft | 4 kts | 158° |
| 2026-04-23 23:38 | 35.21907 | -80.94405 | 732 ft | 4 kts | 189° |
| 2026-04-23 23:39 | 35.21925 | -80.94401 | 731 ft | 0 kts | 189° |
| 2026-04-23 23:41 | 35.21921 | -80.94402 | 732 ft | 1 kts | 189° |
| 2026-04-23 23:41 | 35.21909 | -80.94402 | 732 ft | 3 kts | 179° |
| 2026-04-23 23:41 | 35.21886 | -80.94399 | 730 ft | 4 kts | 173° |
| 2026-04-23 23:42 | 35.21855 | -80.94393 | 732 ft | 5 kts | 168° |
| 2026-04-23 23:42 | 35.21816 | -80.94386 | 732 ft | 5 kts | 174° |
| 2026-04-23 23:42 | 35.21780 | -80.94382 | 732 ft | 6 kts | 175° |
| 2026-04-23 23:42 | 35.21732 | -80.94377 | 732 ft | 8 kts | 176° |
| 2026-04-23 23:43 | 35.21676 | -80.94386 | 732 ft | 9 kts | 207° |
| 2026-04-23 23:43 | 35.21630 | -80.94458 | 731 ft | 12 kts | 252° |
| 2026-04-23 23:43 | 35.21621 | -80.94571 | 732 ft | 14 kts | 266° |
| 2026-04-23 23:43 | 35.21615 | -80.94692 | 732 ft | 15 kts | 267° |
| 2026-04-23 23:44 | 35.21610 | -80.94817 | 732 ft | 15 kts | 267° |
| 2026-04-23 23:44 | 35.21604 | -80.94947 | 733 ft | 15 kts | 265° |
| 2026-04-23 23:44 | 35.21658 | -80.95031 | 734 ft | 14 kts | 355° |
| 2026-04-23 23:44 | 35.21761 | -80.95035 | 734 ft | 15 kts | 356° |
| 2026-04-23 23:45 | 35.21870 | -80.95045 | 734 ft | 16 kts | 356° |
| 2026-04-23 23:45 | 35.21983 | -80.95053 | 734 ft | 17 kts | 356° |
| 2026-04-23 23:45 | 35.22099 | -80.95062 | 734 ft | 17 kts | 356° |
| 2026-04-23 23:45 | 35.22221 | -80.95073 | 734 ft | 18 kts | 355° |
| 2026-04-23 23:46 | 35.22348 | -80.95085 | 734 ft | 19 kts | 356° |
| 2026-04-23 23:46 | 35.22478 | -80.95095 | 733 ft | 19 kts | 356° |
| 2026-04-23 23:46 | 35.22613 | -80.95106 | 733 ft | 20 kts | 356° |
| 2026-04-23 23:46 | 35.22726 | -80.95145 | 734 ft | 15 kts | 300° |
| 2026-04-23 23:47 | 35.22728 | -80.95260 | 739 ft | 11 kts | 266° |
| 2026-04-23 23:47 | 35.22700 | -80.95315 | 741 ft | 7 kts | 185° |
| 2026-04-23 23:47 | 35.22686 | -80.95314 | 741 ft | 0 kts | 176° |
| 2026-04-23 23:49 | 35.22635 | -80.95310 | 741 ft | 30 kts | 176° |
| 2026-04-23 23:49 | 35.22179 | -80.95272 | 742 ft | 99 kts | 176° |
| 2026-04-23 23:49 | 35.21307 | -80.95195 | 738 ft | 152 kts | 176° |
| 2026-04-23 23:50 | 35.20168 | -80.95098 | 1134 ft | 162 kts | 176° |
| 2026-04-23 23:50 | 35.19052 | -80.94985 | 1837 ft | 160 kts | 177° |
| 2026-04-23 23:50 | 35.17951 | -80.94855 | 2424 ft | 161 kts | 173° |
| 2026-04-23 23:50 | 35.16909 | -80.94306 | 2837 ft | 171 kts | 143° |
| 2026-04-23 23:51 | 35.16198 | -80.93029 | 3014 ft | 198 kts | 106° |
| 2026-04-23 23:51 | 35.16208 | -80.91277 | 3183 ft | 223 kts | 76° |
| 2026-04-23 23:51 | 35.16647 | -80.89355 | 3304 ft | 244 kts | 75° |
| 2026-04-23 23:51 | 35.17080 | -80.87259 | 3470 ft | 269 kts | 76° |
| 2026-04-23 23:52 | 35.17532 | -80.84991 | 4018 ft | 278 kts | 77° |
| 2026-04-23 23:52 | 35.17989 | -80.82675 | 4759 ft | 279 kts | 77° |
| 2026-04-23 23:52 | 35.18447 | -80.80363 | 5547 ft | 279 kts | 76° |
| 2026-04-23 23:52 | 35.18899 | -80.78089 | 6342 ft | 278 kts | 76° |
| 2026-04-23 23:53 | 35.19359 | -80.75799 | 7112 ft | 276 kts | 76° |
| 2026-04-23 23:53 | 35.19819 | -80.73518 | 7908 ft | 274 kts | 76° |
| 2026-04-23 23:53 | 35.20269 | -80.71287 | 8715 ft | 271 kts | 75° |
| 2026-04-23 23:53 | 35.20719 | -80.69044 | 9546 ft | 268 kts | 75° |
| 2026-04-23 23:54 | 35.21153 | -80.66870 | 10333 ft | 264 kts | 75° |
| 2026-04-23 23:54 | 35.21585 | -80.64701 | 11108 ft | 258 kts | 75° |
| 2026-04-23 23:54 | 35.22013 | -80.62554 | 11718 ft | 261 kts | 75° |
| 2026-04-23 23:54 | 35.22451 | -80.60384 | 12261 ft | 264 kts | 75° |
| 2026-04-23 23:55 | 35.22888 | -80.58214 | 12825 ft | 267 kts | 76° |
| 2026-04-23 23:55 | 35.23335 | -80.55979 | 13392 ft | 271 kts | 76° |
| 2026-04-23 23:55 | 35.23777 | -80.53755 | 13937 ft | 273 kts | 76° |
| 2026-04-23 23:55 | 35.24229 | -80.51482 | 14471 ft | 275 kts | 76° |
| 2026-04-23 23:56 | 35.24684 | -80.49190 | 14978 ft | 278 kts | 76° |
| 2026-04-23 23:56 | 35.25142 | -80.46884 | 15494 ft | 280 kts | 76° |
| 2026-04-23 23:56 | 35.25540 | -80.44540 | 15998 ft | 282 kts | 80° |
| 2026-04-23 23:56 | 35.25864 | -80.42180 | 16500 ft | 285 kts | 81° |
| 2026-04-23 23:57 | 35.26164 | -80.39769 | 17004 ft | 287 kts | 82° |
| 2026-04-23 23:57 | 35.26361 | -80.38153 | 17337 ft | 289 kts | 82° |
| 2026-04-23 23:57 | 35.26767 | -80.34864 | 17706 ft | 304 kts | 81° |
| 2026-04-23 23:57 | 35.27101 | -80.32227 | 17852 ft | 320 kts | 81° |
| 2026-04-23 23:58 | 35.27336 | -80.30405 | 17945 ft | 331 kts | 81° |
| 2026-04-23 23:58 | 35.27835 | -80.26586 | 18128 ft | 352 kts | 81° |
| 2026-04-23 23:58 | 35.28097 | -80.24595 | 18229 ft | 362 kts | 81° |
| 2026-04-23 23:58 | 35.28508 | -80.21471 | 18359 ft | 377 kts | 81° |
| 2026-04-23 23:59 | 35.28925 | -80.18268 | 18475 ft | 391 kts | 81° |
| 2026-04-23 23:59 | 35.29361 | -80.14915 | 18743 ft | 399 kts | 81° |
| 2026-04-23 23:59 | 35.29802 | -80.11531 | 19179 ft | 403 kts | 80° |
| 2026-04-23 23:59 | 35.30479 | -80.08225 | 19617 ft | 406 kts | 71° |
| 2026-04-24 00:00 | 35.31438 | -80.04958 | 20077 ft | 409 kts | 70° |
| 2026-04-24 00:00 | 35.32411 | -80.01656 | 20542 ft | 412 kts | 70° |
| 2026-04-24 00:00 | 35.33388 | -79.98333 | 21005 ft | 415 kts | 70° |
| 2026-04-24 00:00 | 35.34361 | -79.95024 | 21442 ft | 418 kts | 70° |
| 2026-04-24 00:01 | 35.35351 | -79.91647 | 21868 ft | 421 kts | 70° |
| 2026-04-24 00:01 | 35.36345 | -79.88244 | 22289 ft | 425 kts | 70° |
| 2026-04-24 00:01 | 35.37327 | -79.84861 | 22692 ft | 427 kts | 70° |
| 2026-04-24 00:01 | 35.38332 | -79.81395 | 23090 ft | 430 kts | 70° |
| 2026-04-24 00:02 | 35.39328 | -79.77957 | 23487 ft | 433 kts | 70° |
| 2026-04-24 00:02 | 35.40344 | -79.74458 | 23800 ft | 437 kts | 69° |
| 2026-04-24 00:02 | 35.41369 | -79.70923 | 24143 ft | 439 kts | 69° |
| 2026-04-24 00:02 | 35.42396 | -79.67375 | 24493 ft | 441 kts | 69° |
| 2026-04-24 00:03 | 35.43413 | -79.63860 | 24836 ft | 443 kts | 69° |
| 2026-04-24 00:03 | 35.44445 | -79.60283 | 24974 ft | 443 kts | 69° |
| 2026-04-24 00:03 | 35.45463 | -79.56751 | 25008 ft | 434 kts | 69° |
| 2026-04-24 00:03 | 35.46466 | -79.53270 | 25024 ft | 431 kts | 69° |
| 2026-04-24 00:04 | 35.47458 | -79.49838 | 25014 ft | 430 kts | 69° |
| 2026-04-24 00:04 | 35.48458 | -79.46369 | 25015 ft | 430 kts | 69° |
| 2026-04-24 00:04 | 35.49445 | -79.42937 | 25022 ft | 430 kts | 69° |
| 2026-04-24 00:04 | 35.50443 | -79.39462 | 25009 ft | 430 kts | 69° |
| 2026-04-24 00:05 | 35.51441 | -79.35984 | 25018 ft | 430 kts | 69° |
| 2026-04-24 00:05 | 35.52422 | -79.32555 | 25015 ft | 430 kts | 69° |
| 2026-04-24 00:05 | 35.53413 | -79.29082 | 25007 ft | 430 kts | 70° |
| 2026-04-24 00:05 | 35.54405 | -79.25597 | 25022 ft | 430 kts | 70° |
| 2026-04-24 00:06 | 35.55394 | -79.22123 | 25011 ft | 430 kts | 70° |
| 2026-04-24 00:06 | 35.56371 | -79.18689 | 25020 ft | 430 kts | 70° |
| 2026-04-24 00:06 | 35.57366 | -79.15197 | 25012 ft | 430 kts | 69° |
| 2026-04-24 00:06 | 35.58465 | -79.11773 | 25020 ft | 429 kts | 62° |
| 2026-04-24 00:07 | 35.59967 | -79.08659 | 25015 ft | 427 kts | 52° |
| 2026-04-24 00:07 | 35.61893 | -79.05884 | 25016 ft | 425 kts | 42° |
| 2026-04-24 00:07 | 35.64099 | -79.03469 | 25021 ft | 424 kts | 39° |
| 2026-04-24 00:07 | 35.66334 | -79.01075 | 25014 ft | 424 kts | 39° |
| 2026-04-24 00:08 | 35.68538 | -78.98700 | 25008 ft | 424 kts | 39° |
| 2026-04-24 00:08 | 35.70761 | -78.96294 | 25001 ft | 424 kts | 39° |
| 2026-04-24 00:08 | 35.72977 | -78.93886 | 25005 ft | 424 kts | 39° |
| 2026-04-24 00:08 | 35.75200 | -78.91467 | 25008 ft | 424 kts | 39° |
| 2026-04-24 00:09 | 35.77382 | -78.89092 | 25009 ft | 424 kts | 39° |
| 2026-04-24 00:09 | 35.79608 | -78.86669 | 25010 ft | 424 kts | 39° |
| 2026-04-24 00:09 | 35.81828 | -78.84255 | 24995 ft | 424 kts | 39° |
| 2026-04-24 00:09 | 35.84047 | -78.81840 | 24999 ft | 424 kts | 39° |
| 2026-04-24 00:10 | 35.86230 | -78.79462 | 25005 ft | 424 kts | 39° |
| 2026-04-24 00:10 | 35.88532 | -78.77175 | 25005 ft | 422 kts | 34° |
| 2026-04-24 00:10 | 35.90907 | -78.75020 | 25011 ft | 422 kts | 34° |
| 2026-04-24 00:10 | 35.93250 | -78.72888 | 24997 ft | 422 kts | 34° |
| 2026-04-24 00:11 | 35.95616 | -78.70730 | 24990 ft | 422 kts | 34° |
| 2026-04-24 00:11 | 35.97980 | -78.68569 | 24997 ft | 422 kts | 34° |
| 2026-04-24 00:11 | 36.00346 | -78.66402 | 25004 ft | 422 kts | 34° |
| 2026-04-24 00:11 | 36.02684 | -78.64262 | 25000 ft | 422 kts | 34° |
| 2026-04-24 00:12 | 36.05054 | -78.62094 | 25005 ft | 422 kts | 34° |
| 2026-04-24 00:12 | 36.07419 | -78.59928 | 25004 ft | 422 kts | 34° |
| 2026-04-24 00:12 | 36.09778 | -78.57765 | 25002 ft | 422 kts | 34° |
| 2026-04-24 00:12 | 36.12115 | -78.55624 | 25011 ft | 421 kts | 34° |
| 2026-04-24 00:13 | 36.14479 | -78.53456 | 25003 ft | 421 kts | 34° |
| 2026-04-24 00:13 | 36.16842 | -78.51290 | 24999 ft | 421 kts | 34° |
| 2026-04-24 00:13 | 36.19201 | -78.49126 | 24910 ft | 418 kts | 34° |
| 2026-04-24 00:13 | 36.21493 | -78.47019 | 24684 ft | 413 kts | 34° |
| 2026-04-24 00:14 | 36.23796 | -78.44895 | 24464 ft | 411 kts | 34° |
| 2026-04-24 00:14 | 36.26089 | -78.42779 | 24222 ft | 409 kts | 34° |
| 2026-04-24 00:14 | 36.28348 | -78.40694 | 23992 ft | 408 kts | 34° |
| 2026-04-24 00:14 | 36.30626 | -78.38595 | 23767 ft | 407 kts | 34° |
| 2026-04-24 00:15 | 36.32894 | -78.36505 | 23538 ft | 406 kts | 34° |
| 2026-04-24 00:15 | 36.35163 | -78.34412 | 23263 ft | 404 kts | 34° |
| 2026-04-24 00:15 | 36.37428 | -78.32322 | 22990 ft | 403 kts | 34° |
| 2026-04-24 00:15 | 36.39648 | -78.30268 | 22730 ft | 402 kts | 35° |
| 2026-04-24 00:16 | 36.41887 | -78.28191 | 22475 ft | 397 kts | 35° |
| 2026-04-24 00:16 | 36.44093 | -78.26142 | 22040 ft | 393 kts | 35° |
| 2026-04-24 00:16 | 36.46256 | -78.24134 | 21607 ft | 390 kts | 35° |
| 2026-04-24 00:16 | 36.48435 | -78.22112 | 21161 ft | 387 kts | 35° |
| 2026-04-24 00:17 | 36.50564 | -78.20134 | 20726 ft | 384 kts | 35° |
| 2026-04-24 00:17 | 36.52704 | -78.18141 | 20284 ft | 381 kts | 35° |
| 2026-04-24 00:17 | 36.54829 | -78.16162 | 19811 ft | 379 kts | 35° |
| 2026-04-24 00:17 | 36.56913 | -78.14223 | 19427 ft | 377 kts | 35° |
| 2026-04-24 00:18 | 36.59015 | -78.12270 | 18968 ft | 375 kts | 35° |
| 2026-04-24 00:18 | 36.61111 | -78.10326 | 18509 ft | 374 kts | 35° |
| 2026-04-24 00:18 | 36.63199 | -78.08382 | 18035 ft | 372 kts | 35° |
| 2026-04-24 00:18 | 36.65233 | -78.06483 | 17602 ft | 368 kts | 35° |
| 2026-04-24 00:19 | 36.67285 | -78.04565 | 17135 ft | 366 kts | 35° |
| 2026-04-24 00:19 | 36.69317 | -78.02664 | 16671 ft | 363 kts | 35° |
| 2026-04-24 00:19 | 36.71331 | -78.00777 | 16218 ft | 360 kts | 35° |
| 2026-04-24 00:19 | 36.73306 | -77.98927 | 15771 ft | 357 kts | 35° |
| 2026-04-24 00:20 | 36.75285 | -77.97075 | 15322 ft | 354 kts | 35° |
| 2026-04-24 00:20 | 36.77251 | -77.95235 | 14867 ft | 351 kts | 35° |
| 2026-04-24 00:20 | 36.79207 | -77.93403 | 14416 ft | 348 kts | 35° |
| 2026-04-24 00:20 | 36.81116 | -77.91614 | 13972 ft | 346 kts | 35° |
| 2026-04-24 00:21 | 36.83041 | -77.89810 | 13485 ft | 344 kts | 35° |
| 2026-04-24 00:21 | 36.84947 | -77.88016 | 13034 ft | 340 kts | 35° |
| 2026-04-24 00:21 | 36.86831 | -77.86239 | 12554 ft | 337 kts | 34° |
| 2026-04-24 00:21 | 36.88695 | -77.84483 | 12130 ft | 334 kts | 34° |
| 2026-04-24 00:22 | 36.90522 | -77.82765 | 11709 ft | 331 kts | 34° |
| 2026-04-24 00:22 | 36.92361 | -77.81037 | 11291 ft | 328 kts | 34° |
| 2026-04-24 00:22 | 36.94168 | -77.79334 | 10838 ft | 319 kts | 34° |
| 2026-04-24 00:22 | 36.95889 | -77.77712 | 10406 ft | 308 kts | 34° |
| 2026-04-24 00:23 | 36.97576 | -77.76123 | 9977 ft | 298 kts | 33° |
| 2026-04-24 00:23 | 36.99320 | -77.74758 | 9529 ft | 295 kts | 28° |
| 2026-04-24 00:23 | 37.01093 | -77.73440 | 9058 ft | 297 kts | 28° |
| 2026-04-24 00:23 | 37.02872 | -77.72112 | 8629 ft | 297 kts | 28° |
| 2026-04-24 00:24 | 37.04628 | -77.70796 | 8272 ft | 295 kts | 28° |
| 2026-04-24 00:24 | 37.06386 | -77.69478 | 7926 ft | 293 kts | 28° |
| 2026-04-24 00:24 | 37.08129 | -77.68170 | 7590 ft | 291 kts | 28° |
| 2026-04-24 00:24 | 37.09751 | -77.66653 | 7238 ft | 288 kts | 38° |
| 2026-04-24 00:25 | 37.11205 | -77.65020 | 6902 ft | 280 kts | 39° |
| 2026-04-24 00:25 | 37.12647 | -77.63369 | 6568 ft | 278 kts | 40° |
| 2026-04-24 00:25 | 37.14060 | -77.61748 | 6248 ft | 277 kts | 40° |
| 2026-04-24 00:25 | 37.15475 | -77.60124 | 5951 ft | 274 kts | 40° |
| 2026-04-24 00:26 | 37.16886 | -77.58512 | 5650 ft | 272 kts | 40° |
| 2026-04-24 00:26 | 37.18286 | -77.56936 | 5437 ft | 266 kts | 40° |
| 2026-04-24 00:26 | 37.19632 | -77.55430 | 5240 ft | 260 kts | 40° |
| 2026-04-24 00:26 | 37.20980 | -77.53921 | 5044 ft | 258 kts | 40° |
| 2026-04-24 00:27 | 37.22329 | -77.52417 | 4842 ft | 258 kts | 40° |
| 2026-04-24 00:27 | 37.23519 | -77.50775 | 4649 ft | 258 kts | 60° |
| 2026-04-24 00:27 | 37.24083 | -77.48627 | 4449 ft | 259 kts | 78° |
| 2026-04-24 00:27 | 37.24401 | -77.46398 | 4235 ft | 259 kts | 80° |
| 2026-04-24 00:28 | 37.24802 | -77.44231 | 3986 ft | 253 kts | 68° |
| 2026-04-24 00:28 | 37.25518 | -77.42217 | 3737 ft | 251 kts | 63° |
| 2026-04-24 00:28 | 37.26274 | -77.40275 | 3498 ft | 250 kts | 63° |
| 2026-04-24 00:28 | 37.27044 | -77.38322 | 3259 ft | 249 kts | 63° |
| 2026-04-24 00:29 | 37.27817 | -77.36376 | 3020 ft | 248 kts | 63° |
| 2026-04-24 00:29 | 37.28593 | -77.34444 | 2768 ft | 246 kts | 63° |
| 2026-04-24 00:29 | 37.29365 | -77.32537 | 2555 ft | 240 kts | 63° |
| 2026-04-24 00:29 | 37.30128 | -77.30731 | 2304 ft | 235 kts | 58° |
| 2026-04-24 00:30 | 37.31022 | -77.29027 | 2082 ft | 231 kts | 55° |
| 2026-04-24 00:30 | 37.31907 | -77.27418 | 2012 ft | 215 kts | 54° |
| 2026-04-24 00:30 | 37.32748 | -77.25896 | 2033 ft | 210 kts | 54° |
| 2026-04-24 00:30 | 37.33743 | -77.24592 | 2017 ft | 206 kts | 36° |
| 2026-04-24 00:31 | 37.34899 | -77.23566 | 2009 ft | 199 kts | 33° |
| 2026-04-24 00:31 | 37.36114 | -77.22769 | 2009 ft | 195 kts | 22° |
| 2026-04-24 00:31 | 37.37382 | -77.22252 | 2002 ft | 185 kts | 7° |
| 2026-04-24 00:31 | 37.38631 | -77.22294 | 2031 ft | 176 kts | 347° |
| 2026-04-24 00:32 | 37.39755 | -77.22839 | 2021 ft | 171 kts | 328° |
| 2026-04-24 00:32 | 37.40745 | -77.23628 | 2003 ft | 164 kts | 326° |
| 2026-04-24 00:32 | 37.41680 | -77.24373 | 1897 ft | 160 kts | 325° |
| 2026-04-24 00:32 | 37.42612 | -77.25117 | 1729 ft | 157 kts | 326° |
| 2026-04-24 00:33 | 37.43535 | -77.25854 | 1537 ft | 155 kts | 326° |
| 2026-04-24 00:33 | 37.44431 | -77.26569 | 1338 ft | 153 kts | 326° |
| 2026-04-24 00:33 | 37.45324 | -77.27283 | 1146 ft | 152 kts | 326° |
| 2026-04-24 00:33 | 37.46211 | -77.27993 | 962 ft | 151 kts | 326° |
| 2026-04-24 00:34 | 37.47099 | -77.28704 | 768 ft | 151 kts | 326° |
| 2026-04-24 00:34 | 37.47979 | -77.29414 | 571 ft | 150 kts | 327° |
| 2026-04-24 00:34 | 37.48856 | -77.30119 | 390 ft | 149 kts | 328° |
| 2026-04-24 00:34 | 37.49735 | -77.30818 | 208 ft | 149 kts | 327° |
| 2026-04-24 00:35 | 37.50530 | -77.31453 | 175 ft | 105 kts | 327° |
| 2026-04-24 00:35 | 37.50951 | -77.31790 | 173 ft | 57 kts | 327° |
| 2026-04-24 00:35 | 37.51267 | -77.32044 | 175 ft | 50 kts | 327° |
| 2026-04-24 00:35 | 37.51523 | -77.32246 | 175 ft | 30 kts | 329° |
| 2026-04-24 00:36 | 37.51630 | -77.32390 | 173 ft | 20 kts | 276° |
| 2026-04-24 00:36 | 37.51638 | -77.32571 | 173 ft | 20 kts | 271° |
| 2026-04-24 00:36 | 37.51583 | -77.32684 | 173 ft | 17 kts | 198° |
| 2026-04-24 00:36 | 37.51468 | -77.32720 | 173 ft | 18 kts | 194° |
| 2026-04-24 00:37 | 37.51344 | -77.32759 | 173 ft | 19 kts | 193° |
| 2026-04-24 00:37 | 37.51215 | -77.32798 | 173 ft | 20 kts | 193° |
| 2026-04-24 00:37 | 37.51078 | -77.32838 | 173 ft | 21 kts | 193° |
| 2026-04-24 00:37 | 37.50944 | -77.32878 | 173 ft | 11 kts | 193° |
| 2026-04-24 00:38 | 37.50925 | -77.32936 | 173 ft | 8 kts | 285° |
| 2026-04-24 00:38 | 37.50932 | -77.32970 | 173 ft | 0 kts | 284° |